Time;durP1;ratioP1;P1;durP2;ratioP2;P2;SDS_P1;SDS_P2;PMS_P1;PMS_P2;Temp;Humidity;BMP_temperature;BMP_pressure;BME280_temperature;BME280_humidity;BME280_pressure;Samples;Min_cycle;Max_cycle;Signal;HPM_P1;HPM_P2
2021/08/17 00:05:06;;;;;;;9.1;4.1;;;;;;;18.47;100;97861.23;;;;
2021/08/17 00:15:05;;;;;;;7.9;5.6;;;;;;;18.42;100;97828.84;;;;
2021/08/17 00:25:05;;;;;;;9.8;5.9;;;;;;;18.27;100;97811.57;;;;
2021/08/17 00:35:04;;;;;;;7.6;4.9;;;;;;;18.1;100;97840.25;;;;
2021/08/17 00:45:04;;;;;;;4.8;3.1;;;;;;;17.64;100;97879.83;;;;
2021/08/17 00:55:04;;;;;;;5.6;3.2;;;;;;;16.95;100;97932.91;;;;
2021/08/17 01:05:04;;;;;;;6.3;2.3;;;;;;;16.41;100;97974.72;;;;
2021/08/17 01:15:03;;;;;;;5.5;2.9;;;;;;;16.24;100;97971.66;;;;
2021/08/17 01:25:02;;;;;;;3.9;2.1;;;;;;;16.16;100;97948.19;;;;
2021/08/17 01:35:02;;;;;;;6.5;3;;;;;;;16.15;100;97946.61;;;;
2021/08/17 01:45:01;;;;;;;7.8;3;;;;;;;16.23;100;97961.92;;;;
2021/08/17 01:55:02;;;;;;;9.3;3.5;;;;;;;16.28;100;97961.64;;;;
2021/08/17 02:05:00;;;;;;;10.2;4.6;;;;;;;16.32;100;97970.63;;;;
2021/08/17 02:15:00;;;;;;;7.9;3.6;;;;;;;16.44;100;97948.72;;;;
2021/08/17 02:25:00;;;;;;;5.6;2.9;;;;;;;16.3;100;97962.84;;;;
2021/08/17 02:34:59;;;;;;;5.9;3.2;;;;;;;16.33;100;97929.49;;;;
2021/08/17 02:44:59;;;;;;;13.1;3.3;;;;;;;16.19;100;97944.75;;;;
2021/08/17 02:54:59;;;;;;;5.5;2.5;;;;;;;16.18;100;97975.8;;;;
2021/08/17 03:04:58;;;;;;;6.8;3.2;;;;;;;16.18;100;97954.05;;;;
2021/08/17 03:14:58;;;;;;;6;2.8;;;;;;;16.11;100;97979.16;;;;
2021/08/17 03:24:58;;;;;;;5.1;2.5;;;;;;;16.14;100;97981.16;;;;
2021/08/17 03:34:57;;;;;;;13.9;4.1;;;;;;;16.03;100;97980.97;;;;
2021/08/17 03:44:57;;;;;;;4.9;1.7;;;;;;;16.16;100;98005.28;;;;
2021/08/17 03:54:57;;;;;;;13.9;4.3;;;;;;;16.23;100;98005.42;;;;
2021/08/17 04:04:56;;;;;;;7.8;2.9;;;;;;;16.34;100;98015.38;;;;
2021/08/17 04:14:56;;;;;;;5.9;2.6;;;;;;;16.32;100;98019.58;;;;
2021/08/17 04:24:56;;;;;;;5.7;2.6;;;;;;;16.39;100;98041.48;;;;
2021/08/17 04:34:55;;;;;;;4.2;2;;;;;;;16.48;100;98072.78;;;;
2021/08/17 04:44:55;;;;;;;5.8;2.8;;;;;;;16.52;100;98051.09;;;;
2021/08/17 04:54:55;;;;;;;7.1;2.7;;;;;;;16.56;100;98016.59;;;;
2021/08/17 05:04:54;;;;;;;5;2.5;;;;;;;16.63;100;98034.97;;;;
2021/08/17 05:14:54;;;;;;;6.8;2.6;;;;;;;16.69;100;98031.63;;;;
2021/08/17 05:24:54;;;;;;;4.4;2;;;;;;;16.68;100;98051.81;;;;
2021/08/17 05:34:53;;;;;;;5.9;3.5;;;;;;;16.71;100;98085.67;;;;
2021/08/17 05:44:53;;;;;;;7.3;3.4;;;;;;;16.38;100;98110.64;;;;
2021/08/17 05:54:53;;;;;;;10.2;5.3;;;;;;;16.05;100;98117.3;;;;
2021/08/17 06:04:53;;;;;;;7.7;4.7;;;;;;;16.19;100;98124.2;;;;
2021/08/17 06:14:52;;;;;;;10.4;4.6;;;;;;;16.05;100;98120.03;;;;
2021/08/17 06:24:52;;;;;;;13.2;4;;;;;;;16.03;100;98122.32;;;;
2021/08/17 06:34:52;;;;;;;6.8;3.9;;;;;;;15.57;100;98136.73;;;;
2021/08/17 06:44:51;;;;;;;6.8;3.9;;;;;;;14.96;100;98152.58;;;;
2021/08/17 06:54:51;;;;;;;6.4;3.2;;;;;;;14.78;100;98179.22;;;;
2021/08/17 07:04:50;;;;;;;9.4;5;;;;;;;14.88;100;98199.64;;;;
2021/08/17 07:14:50;;;;;;;9.4;4.8;;;;;;;14.34;100;98221.67;;;;
2021/08/17 07:24:49;;;;;;;7.4;2.8;;;;;;;13.98;100;98263.11;;;;
2021/08/17 07:34:48;;;;;;;5.5;2.6;;;;;;;13.7;100;98283.81;;;;
2021/08/17 07:44:48;;;;;;;9.1;5.5;;;;;;;13.56;100;98299.57;;;;
2021/08/17 07:54:47;;;;;;;15.5;5.9;;;;;;;13.45;100;98303.81;;;;
2021/08/17 08:04:46;;;;;;;4.6;2.3;;;;;;;12.9;100;98355.47;;;;
2021/08/17 08:14:46;;;;;;;5.8;3.6;;;;;;;12.88;100;98360.39;;;;
2021/08/17 08:24:45;;;;;;;3.9;1.6;;;;;;;12.55;100;98379.99;;;;
2021/08/17 08:34:44;;;;;;;21.9;4;;;;;;;12.81;100;98377.14;;;;
2021/08/17 08:44:43;;;;;;;9.1;2.8;;;;;;;13.14;100;98400.86;;;;
2021/08/17 08:54:43;;;;;;;5.3;3.2;;;;;;;13.49;100;98413.03;;;;
2021/08/17 09:04:42;;;;;;;3.4;1.4;;;;;;;13.81;100;98427.75;;;;
2021/08/17 09:14:42;;;;;;;5.8;2.1;;;;;;;14.32;100;98448.92;;;;
2021/08/17 09:24:41;;;;;;;7;3.1;;;;;;;14.66;100;98445.06;;;;
2021/08/17 09:34:41;;;;;;;6.1;2.6;;;;;;;15.03;100;98448.58;;;;
2021/08/17 09:44:40;;;;;;;4.2;1.7;;;;;;;15.28;100;98460.22;;;;
2021/08/17 09:54:41;;;;;;;4.2;2.4;;;;;;;15.13;100;98454.34;;;;
2021/08/17 10:04:39;;;;;;;3.6;1.5;;;;;;;15.75;100;98463.23;;;;
2021/08/17 10:14:43;;;;;;;4;1.9;;;;;;;16.24;100;98482.88;;;;
2021/08/17 10:24:41;;;;;;;5.9;1.8;;;;;;;16.36;100;98475.44;;;;
2021/08/17 10:34:42;;;;;;;4.9;2.8;;;;;;;16.53;100;98485.21;;;;
2021/08/17 10:44:43;;;;;;;2.8;1.6;;;;;;;16.2;100;98503.73;;;;
2021/08/17 10:54:44;;;;;;;4.1;1.5;;;;;;;16.27;100;98479.46;;;;
2021/08/17 11:04:38;;;;;;;4.6;2.1;;;;;;;16.87;100;98470.95;;;;
2021/08/17 11:14:38;;;;;;;5.3;2.1;;;;;;;16.37;100;98482.47;;;;
2021/08/17 11:24:38;;;;;;;3.8;1.3;;;;;;;17.16;100;98475.17;;;;
2021/08/17 11:34:38;;;;;;;5.5;2.1;;;;;;;18.16;100;98472.69;;;;
2021/08/17 11:44:38;;;;;;;11;1.8;;;;;;;18.48;100;98485.02;;;;
2021/08/17 11:54:38;;;;;;;3.6;1.8;;;;;;;18.56;100;98470.39;;;;
2021/08/17 12:04:38;;;;;;;3.6;1.7;;;;;;;18.33;100;98469.52;;;;
2021/08/17 12:14:38;;;;;;;2.5;1.3;;;;;;;17.83;100;98490.35;;;;
2021/08/17 12:24:39;;;;;;;4.7;2;;;;;;;18.41;100;98493.06;;;;
2021/08/17 12:34:38;;;;;;;3.4;1.6;;;;;;;18.09;100;98493.23;;;;
2021/08/17 12:44:39;;;;;;;3.1;1.5;;;;;;;18.21;100;98491.51;;;;
2021/08/17 12:54:38;;;;;;;2.8;1.4;;;;;;;18;100;98495.39;;;;
2021/08/17 13:04:38;;;;;;;4.7;1.8;;;;;;;18.03;100;98497.39;;;;
2021/08/17 13:14:38;;;;;;;3.9;1.5;;;;;;;18.89;100;98494.36;;;;
2021/08/17 13:24:39;;;;;;;4.7;1.8;;;;;;;18.97;100;98491.39;;;;
2021/08/17 13:34:39;;;;;;;4.2;2.7;;;;;;;18.95;100;98480.03;;;;
2021/08/17 13:44:39;;;;;;;3.2;1.7;;;;;;;18.98;100;98495.71;;;;
2021/08/17 13:54:39;;;;;;;3.8;1.8;;;;;;;18.49;100;98495.58;;;;
2021/08/17 14:04:40;;;;;;;9.5;2.5;;;;;;;18.32;100;98490.58;;;;
2021/08/17 14:14:39;;;;;;;5;1.8;;;;;;;18.5;100;98494.44;;;;
2021/08/17 14:24:39;;;;;;;4.8;2;;;;;;;19.14;100;98486.58;;;;
2021/08/17 14:34:39;;;;;;;4.4;1.8;;;;;;;19.2;100;98482.38;;;;
2021/08/17 14:44:40;;;;;;;6.1;2.3;;;;;;;19.09;100;98472.06;;;;
2021/08/17 14:54:40;;;;;;;5.7;3.1;;;;;;;18.98;100;98478.53;;;;
2021/08/17 15:04:40;;;;;;;4.6;1.8;;;;;;;19.2;100;98480.44;;;;
2021/08/17 15:14:40;;;;;;;6;3.1;;;;;;;18.9;100;98479.55;;;;
2021/08/17 15:24:40;;;;;;;6.6;2.8;;;;;;;19.78;100;98486.41;;;;
2021/08/17 15:34:40;;;;;;;5.2;2.6;;;;;;;19.55;100;98469.27;;;;
2021/08/17 15:44:41;;;;;;;5.3;2.5;;;;;;;19.93;100;98460.8;;;;
2021/08/17 15:54:41;;;;;;;6;2.8;;;;;;;20.52;100;98472.84;;;;
2021/08/17 16:04:41;;;;;;;6;2.4;;;;;;;22.82;92.13867;98479.75;;;;
2021/08/17 16:14:42;;;;;;;5.3;2.3;;;;;;;22.32;83.41895;98484.34;;;;
2021/08/17 16:24:42;;;;;;;5;1.6;;;;;;;22.88;79.89746;98487.22;;;;
2021/08/17 16:34:43;;;;;;;3.6;2;;;;;;;20.62;89.50391;98482.34;;;;
2021/08/17 16:44:43;;;;;;;7.6;3.2;;;;;;;19.44;95.09277;98482.78;;;;
2021/08/17 16:54:44;;;;;;;4.9;2.8;;;;;;;19.13;99.22168;98479.53;;;;
2021/08/17 17:04:44;;;;;;;4.2;1.8;;;;;;;18.59;100;98486.03;;;;
2021/08/17 17:14:44;;;;;;;5;2.1;;;;;;;18.1;100;98491.3;;;;
2021/08/17 17:24:44;;;;;;;3.8;1.8;;;;;;;17.3;100;98485.61;;;;
2021/08/17 17:34:44;;;;;;;8.9;3.5;;;;;;;16.88;100;98477.98;;;;
2021/08/17 17:44:44;;;;;;;4.4;2.4;;;;;;;16.5;100;98472.31;;;;
2021/08/17 17:54:43;;;;;;;8.7;3.1;;;;;;;15.95;100;98492.16;;;;
2021/08/17 18:04:43;;;;;;;6.5;3.7;;;;;;;15.49;100;98491.58;;;;
2021/08/17 18:14:43;;;;;;;4;2.6;;;;;;;15.1;100;98495.75;;;;
2021/08/17 18:24:42;;;;;;;4.2;2;;;;;;;14.88;100;98503.55;;;;
2021/08/17 18:34:42;;;;;;;4.8;2.7;;;;;;;14.77;100;98500.47;;;;
2021/08/17 18:44:41;;;;;;;4.9;2.2;;;;;;;14.72;100;98497.16;;;;
2021/08/17 18:54:41;;;;;;;4.5;2.4;;;;;;;14.48;100;98514.17;;;;
2021/08/17 19:04:41;;;;;;;5.4;2.3;;;;;;;14.23;100;98509.78;;;;
2021/08/17 19:14:40;;;;;;;5.7;2.1;;;;;;;14.11;100;98527.58;;;;
2021/08/17 19:24:39;;;;;;;5.1;2.5;;;;;;;13.89;100;98527.9;;;;
2021/08/17 19:34:38;;;;;;;3.1;1.9;;;;;;;13.74;100;98528.5;;;;
2021/08/17 19:44:38;;;;;;;6.5;2.4;;;;;;;13.69;100;98538.72;;;;
2021/08/17 19:54:37;;;;;;;4.9;2.1;;;;;;;13.47;100;98556.05;;;;
2021/08/17 20:04:36;;;;;;;3.7;2.1;;;;;;;13.33;100;98537.33;;;;
2021/08/17 20:14:35;;;;;;;4.3;2;;;;;;;13.35;100;98534.3;;;;
2021/08/17 20:24:35;;;;;;;4.6;2.1;;;;;;;13.22;100;98516.39;;;;
2021/08/17 20:34:34;;;;;;;5.2;2;;;;;;;13.05;100;98518;;;;
2021/08/17 20:44:33;;;;;;;3.5;1.9;;;;;;;12.98;100;98523.13;;;;
2021/08/17 20:54:32;;;;;;;5.5;1.9;;;;;;;13.01;100;98522.5;;;;
2021/08/17 21:04:31;;;;;;;7.2;3.8;;;;;;;13.07;100;98517.69;;;;
2021/08/17 21:14:31;;;;;;;6.5;2.3;;;;;;;13.03;100;98508.63;;;;
2021/08/17 21:24:30;;;;;;;5.3;2.4;;;;;;;13.01;100;98494.65;;;;
2021/08/17 21:34:29;;;;;;;6.8;3.1;;;;;;;12.78;100;98504.11;;;;
2021/08/17 21:44:28;;;;;;;4.2;2.5;;;;;;;12.68;100;98497.14;;;;
2021/08/17 21:54:27;;;;;;;6.1;2.8;;;;;;;12.79;100;98501.09;;;;
2021/08/17 22:04:26;;;;;;;5.7;2.8;;;;;;;12.69;100;98496.04;;;;
2021/08/17 22:14:26;;;;;;;5.5;2.5;;;;;;;12.63;100;98491.93;;;;
2021/08/17 22:24:25;;;;;;;4.1;2.3;;;;;;;12.58;100;98459.64;;;;
2021/08/17 22:34:24;;;;;;;5.1;2.1;;;;;;;12.51;100;98468.26;;;;
2021/08/17 22:44:23;;;;;;;4.4;2.1;;;;;;;12.43;100;98469.06;;;;
2021/08/17 22:54:22;;;;;;;5;2.2;;;;;;;12.39;100;98453.84;;;;
2021/08/17 23:04:21;;;;;;;4.9;2;;;;;;;12.22;100;98457.34;;;;
2021/08/17 23:14:20;;;;;;;6;2.4;;;;;;;11.97;100;98464.4;;;;
2021/08/17 23:24:20;;;;;;;5.3;2.8;;;;;;;11.76;100;98470.75;;;;
2021/08/17 23:34:19;;;;;;;5.3;2.6;;;;;;;11.75;100;98472.66;;;;
2021/08/17 23:44:18;;;;;;;5.9;2.7;;;;;;;11.86;100;98492.84;;;;
2021/08/17 23:54:17;;;;;;;4.4;2.2;;;;;;;11.89;100;98480.59;;;;
